Time;durP1;ratioP1;P1;durP2;ratioP2;P2;SDS_P1;SDS_P2;PMS_P1;PMS_P2;Temp;Humidity;BMP_temperature;BMP_pressure;BME280_temperature;BME280_humidity;BME280_pressure;Samples;Min_cycle;Max_cycle;Signal;HPM_P1;HPM_P2
2022/10/28 00:01:00;;;;;;;6.15;3.15;;;19.60;52.00;;;;;;4881729;29;20514;-55
2022/10/28 00:03:27;;;;;;;8.70;3.92;;;19.60;53.10;;;;;;4881676;29;20053;-57
2022/10/28 00:06:04;;;;;;;9.38;4.57;;;19.60;51.50;;;;;;4881527;29;20068;-55
2022/10/28 00:08:31;;;;;;;6.65;2.85;;;19.60;50.50;;;;;;4881311;29;20041;-57
2022/10/28 00:11:34;;;;;;;5.80;2.97;;;19.50;50.60;;;;;;4881423;29;20491;-58
2022/10/28 00:14:03;;;;;;;5.25;3.00;;;19.60;52.40;;;;;;4881440;29;20136;-57
2022/10/28 00:16:32;;;;;;;4.22;2.58;;;19.50;48.50;;;;;;4881498;29;20041;-55
2022/10/28 00:19:01;;;;;;;5.90;3.53;;;19.60;48.30;;;;;;4881204;29;20506;-57
2022/10/28 00:21:30;;;;;;;5.47;2.90;;;19.50;48.60;;;;;;4881177;29;20041;-54
2022/10/28 00:23:58;;;;;;;7.95;4.22;;;19.50;49.10;;;;;;4881304;29;20064;-57
2022/10/28 00:26:27;;;;;;;5.20;3.45;;;19.60;48.90;;;;;;4881386;29;20430;-56
2022/10/28 00:28:57;;;;;;;5.57;4.07;;;19.60;50.00;;;;;;4881102;29;20041;-53
2022/10/28 00:31:27;;;;;;;6.20;2.58;;;19.60;48.10;;;;;;4880947;29;20049;-53
2022/10/28 00:33:54;;;;;;;6.15;3.53;;;19.60;50.20;;;;;;4880993;29;20044;-58
2022/10/28 00:36:26;;;;;;;5.45;2.90;;;19.50;50.20;;;;;;4881187;29;20048;-56
2022/10/28 00:38:55;;;;;;;5.88;3.67;;;19.50;50.50;;;;;;4880951;29;20128;-55
2022/10/28 00:41:29;;;;;;;6.15;3.05;;;19.50;49.50;;;;;;4880988;29;20041;-57
2022/10/28 00:44:02;;;;;;;7.95;3.33;;;19.50;48.00;;;;;;4881117;29;20067;-53
2022/10/28 00:46:41;;;;;;;5.90;2.65;;;19.50;49.10;;;;;;4880995;29;20407;-55
2022/10/28 00:49:29;;;;;;;6.82;3.25;;;19.50;49.70;;;;;;4880817;29;20048;-58
2022/10/28 00:52:08;;;;;;;5.75;3.10;;;19.50;49.70;;;;;;4868758;29;20049;-56
2022/10/28 00:54:36;;;;;;;7.45;3.03;;;19.50;47.80;;;;;;4862430;29;20412;-55
2022/10/28 00:57:08;;;;;;;4.82;2.80;;;19.50;48.40;;;;;;4862136;29;20102;-58
2022/10/28 00:59:38;;;;;;;6.07;3.08;;;19.50;49.00;;;;;;4861698;29;20041;-55
2022/10/28 01:02:06;;;;;;;9.93;3.00;;;19.50;49.70;;;;;;4862155;29;20046;-56
2022/10/28 01:04:33;;;;;;;6.90;3.42;;;19.50;47.50;;;;;;4862193;29;20128;-54
2022/10/28 01:07:01;;;;;;;5.45;3.65;;;19.50;47.60;;;;;;4861971;29;20128;-56
2022/10/28 01:09:27;;;;;;;5.55;3.08;;;19.50;50.00;;;;;;4861644;29;20053;-56
2022/10/28 01:12:07;;;;;;;5.65;3.13;;;19.50;50.20;;;;;;4862013;29;20053;-56
2022/10/28 01:14:49;;;;;;;5.82;3.50;;;19.50;48.60;;;;;;4861851;29;20045;-54
2022/10/28 01:17:37;;;;;;;8.65;3.33;;;19.50;48.50;;;;;;4861527;29;20049;-56
2022/10/28 01:20:28;;;;;;;7.88;3.40;;;19.50;49.40;;;;;;4861599;29;20053;-56
2022/10/28 01:23:00;;;;;;;6.20;3.70;;;19.50;50.20;;;;;;4861762;29;20057;-58
2022/10/28 01:25:45;;;;;;;7.95;3.47;;;19.50;49.40;;;;;;4861782;29;20057;-57
2022/10/28 01:28:41;;;;;;;8.05;3.83;;;19.50;50.70;;;;;;4861414;29;20152;-54
2022/10/28 01:31:26;;;;;;;5.32;3.67;;;19.50;50.50;;;;;;4811392;29;20513;-54
2022/10/28 01:34:22;;;;;;;6.53;3.55;;;19.40;49.40;;;;;;4861587;29;20041;-57
2022/10/28 01:37:24;;;;;;;5.85;3.20;;;19.40;50.60;;;;;;4836569;29;20500;-53
2022/10/28 01:40:03;;;;;;;3.78;2.60;;;19.40;48.60;;;;;;4861081;29;20140;-55
2022/10/28 01:42:48;;;;;;;6.53;2.97;;;19.50;49.40;;;;;;4861274;29;20041;-56
2022/10/28 01:45:29;;;;;;;7.72;3.35;;;19.40;49.10;;;;;;4861525;29;20056;-55
2022/10/28 01:48:00;;;;;;;5.25;2.85;;;19.40;48.50;;;;;;4861121;29;20419;-58
2022/10/28 01:50:50;;;;;;;7.32;3.45;;;19.40;48.20;;;;;;4861463;29;20046;-55
2022/10/28 01:53:22;;;;;;;5.57;3.20;;;19.40;47.10;;;;;;4879651;29;20056;-54
2022/10/28 01:55:52;;;;;;;4.45;2.75;;;19.40;47.60;;;;;;4879568;29;20048;-58
2022/10/28 01:58:25;;;;;;;5.97;3.40;;;19.40;48.20;;;;;;4879553;29;20049;-52
2022/10/28 02:00:53;;;;;;;6.93;4.07;;;19.40;47.30;;;;;;4879761;29;20048;-57
2022/10/28 02:03:19;;;;;;;5.78;3.38;;;19.40;50.00;;;;;;4879720;29;20049;-54
2022/10/28 02:05:50;;;;;;;4.60;2.78;;;19.40;49.10;;;;;;4893572;29;20059;-54
2022/10/28 02:08:28;;;;;;;5.75;2.80;;;19.40;48.90;;;;;;4879430;29;20087;-56
2022/10/28 02:11:13;;;;;;;5.47;3.55;;;19.40;46.60;;;;;;4879358;29;20049;-57
2022/10/28 02:13:43;;;;;;;5.03;3.17;;;19.40;47.40;;;;;;4879209;29;20487;-51
2022/10/28 02:16:32;;;;;;;5.60;3.10;;;19.40;46.90;;;;;;4879506;29;20041;-57
2022/10/28 02:19:37;;;;;;;4.78;3.00;;;19.40;47.20;;;;;;4879242;29;20049;-53
2022/10/28 02:22:29;;;;;;;7.13;3.88;;;19.40;47.80;;;;;;4879172;29;20495;-54
2022/10/28 02:25:09;;;;;;;5.57;4.13;;;19.40;48.70;;;;;;4879537;29;20049;-55
2022/10/28 02:27:44;;;;;;;6.68;4.28;;;19.40;47.40;;;;;;4878447;29;20063;-55
2022/10/28 02:30:20;;;;;;;5.13;3.30;;;19.40;46.90;;;;;;4879025;29;20115;-54
2022/10/28 02:32:54;;;;;;;9.35;4.03;;;19.40;47.20;;;;;;4879033;29;20049;-53
2022/10/28 02:35:51;;;;;;;8.15;3.80;;;19.40;48.90;;;;;;4879371;29;20041;-56
2022/10/28 02:38:24;;;;;;;5.57;4.03;;;19.40;48.50;;;;;;4874543;29;20065;-56
2022/10/28 02:40:58;;;;;;;4.13;2.88;;;19.40;46.50;;;;;;4879126;29;20060;-52
2022/10/28 02:43:25;;;;;;;9.38;3.50;;;19.40;47.30;;;;;;4878908;29;20049;-55
2022/10/28 02:45:58;;;;;;;5.15;2.85;;;19.30;48.50;;;;;;4879020;29;20053;-52
2022/10/28 02:48:30;;;;;;;5.10;3.00;;;19.40;47.80;;;;;;4878608;29;20049;-55
2022/10/28 02:51:06;;;;;;;5.40;3.25;;;19.40;49.10;;;;;;4874513;29;20061;-56
2022/10/28 02:54:04;;;;;;;4.43;3.30;;;19.40;47.00;;;;;;4860438;29;20134;-57
2022/10/28 02:56:36;;;;;;;5.30;3.22;;;19.30;47.90;;;;;;4857497;29;20117;-54
2022/10/28 02:59:07;;;;;;;6.28;3.15;;;19.40;47.00;;;;;;4860123;29;20038;-57
2022/10/28 03:01:33;;;;;;;4.70;3.28;;;19.30;47.20;;;;;;4859954;29;20081;-51
2022/10/28 03:04:02;;;;;;;4.70;2.80;;;19.40;50.40;;;;;;4859944;29;20423;-55
2022/10/28 03:06:28;;;;;;;3.88;2.45;;;19.30;47.80;;;;;;4859555;29;20053;-54
2022/10/28 03:08:55;;;;;;;4.35;3.10;;;19.40;47.40;;;;;;4860127;29;20080;-55
2022/10/28 03:11:22;;;;;;;4.90;2.65;;;19.30;48.00;;;;;;4860168;29;20056;-57
2022/10/28 03:13:49;;;;;;;4.72;3.30;;;19.40;47.60;;;;;;4860167;29;20050;-53
2022/10/28 03:16:16;;;;;;;4.90;3.10;;;19.40;50.20;;;;;;4860235;29;20046;-57
2022/10/28 03:18:43;;;;;;;5.45;3.15;;;19.40;47.50;;;;;;4859779;29;20420;-57
2022/10/28 03:21:10;;;;;;;5.55;3.03;;;19.40;48.40;;;;;;4860134;29;20068;-57
2022/10/28 03:23:36;;;;;;;4.97;2.85;;;19.30;46.80;;;;;;4858755;29;20181;-56
2022/10/28 03:26:03;;;;;;;4.45;2.97;;;19.30;48.30;;;;;;4860117;29;20144;-57
2022/10/28 03:28:30;;;;;;;5.53;2.90;;;19.30;50.10;;;;;;4859786;29;20053;-54
2022/10/28 03:30:57;;;;;;;5.45;2.90;;;19.30;47.70;;;;;;4859674;29;20046;-55
2022/10/28 03:33:24;;;;;;;6.07;2.95;;;19.30;49.50;;;;;;4859562;29;20080;-52
2022/10/28 03:35:50;;;;;;;4.80;3.38;;;19.30;52.40;;;;;;4859733;29;20041;-54
2022/10/28 03:38:17;;;;;;;5.68;2.90;;;19.30;49.20;;;;;;4859820;29;20106;-55
2022/10/28 03:40:47;;;;;;;5.45;3.53;;;19.30;50.00;;;;;;4862568;29;20045;-54
2022/10/28 03:43:15;;;;;;;6.45;3.53;;;19.30;54.00;;;;;;4863411;29;20052;-54
2022/10/28 03:45:42;;;;;;;4.80;3.15;;;19.30;50.60;;;;;;4863150;29;20041;-53
2022/10/28 03:48:09;;;;;;;8.52;3.33;;;19.30;50.10;;;;;;4863507;29;20045;-55
2022/10/28 03:50:36;;;;;;;6.88;3.42;;;19.30;48.10;;;;;;4864437;29;20049;-52
2022/10/28 03:53:02;;;;;;;4.50;2.60;;;19.30;49.30;;;;;;4881639;29;20041;-53
2022/10/28 03:55:29;;;;;;;4.60;2.78;;;19.30;48.20;;;;;;4881439;29;20418;-52
2022/10/28 03:57:59;;;;;;;4.07;2.92;;;19.30;48.60;;;;;;4881420;29;20041;-56
2022/10/28 04:00:27;;;;;;;5.35;3.17;;;19.30;48.60;;;;;;4881552;29;20072;-54
2022/10/28 04:02:54;;;;;;;5.80;2.80;;;19.30;50.40;;;;;;4881580;29;20105;-55
2022/10/28 04:05:22;;;;;;;4.47;2.97;;;19.30;49.90;;;;;;4881588;29;20586;-51
2022/10/28 04:07:48;;;;;;;5.40;3.22;;;19.30;51.60;;;;;;4881649;29;20087;-55
2022/10/28 04:10:15;;;;;;;4.88;2.90;;;19.30;52.50;;;;;;4869487;29;20496;-52
2022/10/28 04:12:42;;;;;;;5.70;2.90;;;19.30;51.60;;;;;;4854939;29;20042;-53
2022/10/28 04:15:09;;;;;;;5.40;3.03;;;19.20;51.10;;;;;;4860344;29;20052;-52
2022/10/28 04:17:36;;;;;;;4.88;3.13;;;19.30;50.70;;;;;;4862741;29;20045;-55
2022/10/28 04:20:03;;;;;;;6.72;3.20;;;19.30;50.00;;;;;;4861361;29;20045;-56
2022/10/28 04:22:30;;;;;;;5.00;3.05;;;19.30;51.10;;;;;;4863062;29;20132;-53
2022/10/28 04:24:57;;;;;;;5.60;3.10;;;19.30;52.80;;;;;;4862753;29;20054;-53
2022/10/28 04:27:23;;;;;;;14.52;3.30;;;19.30;52.10;;;;;;4862796;29;20678;-50
2022/10/28 04:29:50;;;;;;;5.50;3.85;;;19.30;51.60;;;;;;4862161;29;20500;-55
2022/10/28 04:32:17;;;;;;;6.50;3.38;;;19.30;51.90;;;;;;4862247;29;20060;-57
2022/10/28 04:34:44;;;;;;;12.82;2.85;;;19.30;50.40;;;;;;4862205;29;20052;-55
2022/10/28 04:37:10;;;;;;;9.02;2.60;;;19.20;51.10;;;;;;4862565;29;20077;-56
2022/10/28 04:39:39;;;;;;;5.60;3.22;;;19.20;51.50;;;;;;4861961;29;20046;-57
2022/10/28 04:42:05;;;;;;;8.00;3.30;;;19.30;49.60;;;;;;4862498;29;20568;-54
2022/10/28 04:44:32;;;;;;;6.47;2.60;;;19.20;50.40;;;;;;4862311;29;20049;-57
2022/10/28 04:46:59;;;;;;;7.75;2.85;;;19.30;52.70;;;;;;4862264;29;20461;-56
2022/10/28 04:49:26;;;;;;;4.05;3.10;;;19.20;51.50;;;;;;4862175;29;20402;-53
2022/10/28 04:51:53;;;;;;;4.50;2.47;;;19.20;50.00;;;;;;4871997;29;20061;-52
2022/10/28 04:54:20;;;;;;;7.22;3.20;;;19.30;50.00;;;;;;4874159;29;20072;-54
2022/10/28 04:56:47;;;;;;;4.53;2.17;;;19.20;50.90;;;;;;4862164;29;20074;-55
2022/10/28 04:59:14;;;;;;;6.30;3.13;;;19.20;49.00;;;;;;4861895;29;20044;-55
2022/10/28 05:01:41;;;;;;;8.73;3.05;;;19.20;51.40;;;;;;4862023;29;20033;-53
2022/10/28 05:04:08;;;;;;;9.57;2.90;;;19.20;50.40;;;;;;4861993;29;20060;-51
2022/10/28 05:06:35;;;;;;;7.10;3.42;;;19.20;48.60;;;;;;4861840;29;20082;-51
2022/10/28 05:09:02;;;;;;;3.85;2.40;;;19.20;50.10;;;;;;4861598;29;20737;-53
2022/10/28 05:11:29;;;;;;;8.52;3.67;;;19.20;51.90;;;;;;4861806;29;20053;-55
2022/10/28 05:13:56;;;;;;;7.80;3.17;;;19.20;50.60;;;;;;4861831;29;20057;-51
2022/10/28 05:16:23;;;;;;;5.05;2.92;;;19.20;52.70;;;;;;4861753;29;20045;-52
2022/10/28 05:18:50;;;;;;;5.70;3.28;;;19.20;50.30;;;;;;4861646;29;20507;-51
2022/10/28 05:21:17;;;;;;;6.38;2.97;;;19.20;48.30;;;;;;4861831;29;20049;-52
2022/10/28 05:23:44;;;;;;;6.65;3.58;;;19.20;48.40;;;;;;4861682;29;20072;-54
2022/10/28 05:26:11;;;;;;;4.68;3.25;;;19.20;49.90;;;;;;4861556;29;20106;-53
2022/10/28 05:28:38;;;;;;;7.53;3.17;;;19.10;50.50;;;;;;4861258;29;20392;-53
2022/10/28 05:31:05;;;;;;;5.75;3.35;;;19.20;48.40;;;;;;4861561;29;20409;-50
2022/10/28 05:33:34;;;;;;;3.92;2.80;;;19.10;48.20;;;;;;4861638;29;20041;-56
2022/10/28 05:36:01;;;;;;;6.43;2.72;;;19.20;49.30;;;;;;4861502;29;20129;-54
2022/10/28 05:38:28;;;;;;;3.70;2.47;;;19.20;51.70;;;;;;4861265;29;20423;-56
2022/10/28 05:40:55;;;;;;;3.63;2.40;;;19.10;48.10;;;;;;4861365;29;20502;-56
2022/10/28 05:43:22;;;;;;;4.80;3.13;;;19.20;52.00;;;;;;4861255;29;20069;-55
2022/10/28 05:45:53;;;;;;;4.75;2.97;;;19.10;50.10;;;;;;4861355;29;20487;-54
2022/10/28 05:48:20;;;;;;;6.45;3.30;;;19.10;49.50;;;;;;4875428;29;20049;-56
2022/10/28 05:50:47;;;;;;;9.32;2.90;;;19.10;47.80;;;;;;4861168;29;20540;-58
2022/10/28 05:53:15;;;;;;;7.63;3.50;;;19.10;50.90;;;;;;4861258;29;20077;-56
2022/10/28 05:55:42;;;;;;;7.90;3.55;;;19.10;48.80;;;;;;4860963;29;20045;-56
2022/10/28 05:58:13;;;;;;;6.93;4.22;;;19.10;49.80;;;;;;4861140;29;20054;-53
2022/10/28 06:00:40;;;;;;;5.70;3.45;;;19.10;48.50;;;;;;4860771;29;20555;-56
2022/10/28 06:03:10;;;;;;;6.35;3.13;;;19.10;51.30;;;;;;4861019;29;20065;-54
2022/10/28 06:05:43;;;;;;;4.07;2.55;;;19.10;48.20;;;;;;4861002;29;20041;-57
2022/10/28 06:08:12;;;;;;;5.03;3.55;;;19.10;52.00;;;;;;4860963;29;20072;-54
2022/10/28 06:10:39;;;;;;;4.47;2.60;;;19.10;51.60;;;;;;4860713;29;20055;-55
2022/10/28 06:13:08;;;;;;;6.90;2.83;;;19.10;49.10;;;;;;4860849;29;20468;-56
2022/10/28 06:15:35;;;;;;;5.30;2.65;;;19.10;49.90;;;;;;4860797;29;20061;-56
2022/10/28 06:18:02;;;;;;;5.10;2.97;;;19.10;50.30;;;;;;4861027;29;20057;-54
2022/10/28 06:20:29;;;;;;;6.55;3.35;;;19.10;51.20;;;;;;4860440;29;20076;-54
2022/10/28 06:22:56;;;;;;;5.07;2.92;;;19.10;51.60;;;;;;4860639;29;20065;-52
2022/10/28 06:25:25;;;;;;;5.68;2.97;;;19.10;48.10;;;;;;4860734;29;20049;-53
2022/10/28 06:27:56;;;;;;;5.28;3.30;;;19.10;51.00;;;;;;4860585;29;20045;-57
2022/10/28 06:30:25;;;;;;;5.07;2.78;;;19.10;49.10;;;;;;4860542;29;20385;-58
2022/10/28 06:32:54;;;;;;;14.98;2.80;;;19.10;50.80;;;;;;4859092;29;20057;-56
2022/10/28 06:35:22;;;;;;;4.80;2.88;;;19.10;52.90;;;;;;4853096;29;20056;-56
2022/10/28 06:37:55;;;;;;;4.95;2.80;;;19.10;51.00;;;;;;4860486;29;20046;-54
2022/10/28 06:40:24;;;;;;;6.13;2.65;;;19.10;51.60;;;;;;4860032;29;20037;-54
2022/10/28 06:43:11;;;;;;;6.75;2.78;;;19.10;51.80;;;;;;4859344;29;20042;-55
2022/10/28 06:45:38;;;;;;;5.30;2.65;;;19.10;50.80;;;;;;4860234;29;20045;-54
2022/10/28 06:48:05;;;;;;;7.57;3.22;;;19.10;51.50;;;;;;4860557;29;20445;-53
2022/10/28 06:50:33;;;;;;;7.30;3.45;;;19.10;48.70;;;;;;4861525;29;20042;-56
2022/10/28 06:53:00;;;;;;;7.97;2.50;;;19.10;49.50;;;;;;4878950;29;20045;-55
2022/10/28 06:55:28;;;;;;;4.05;2.58;;;19.10;51.20;;;;;;4878765;29;20041;-54
2022/10/28 06:57:59;;;;;;;3.65;2.33;;;19.00;47.20;;;;;;4878760;29;20045;-54
2022/10/28 07:00:28;;;;;;;5.30;3.85;;;19.10;49.90;;;;;;4878477;29;20109;-54
2022/10/28 07:03:00;;;;;;;6.47;2.72;;;19.10;48.20;;;;;;4878952;29;20045;-56
2022/10/28 07:05:27;;;;;;;4.85;2.92;;;19.10;50.30;;;;;;4878877;29;20048;-56
2022/10/28 07:07:54;;;;;;;5.20;2.78;;;19.10;50.90;;;;;;4878656;29;20057;-55
2022/10/28 07:10:22;;;;;;;7.28;2.70;;;19.10;48.60;;;;;;4878404;29;20049;-53
2022/10/28 07:12:50;;;;;;;4.45;2.78;;;19.10;51.30;;;;;;4878747;29;20479;-57
2022/10/28 07:15:17;;;;;;;4.80;3.58;;;19.10;49.50;;;;;;4881066;29;20049;-51
2022/10/28 07:17:51;;;;;;;7.38;3.55;;;19.10;49.30;;;;;;4882526;29;20048;-57
2022/10/28 07:20:18;;;;;;;2.90;2.13;;;19.10;50.00;;;;;;4882190;29;20063;-51
2022/10/28 07:22:45;;;;;;;5.70;2.97;;;19.00;50.50;;;;;;4881429;29;20053;-55
2022/10/28 07:25:11;;;;;;;8.13;2.63;;;19.00;49.20;;;;;;4882357;29;20052;-54
2022/10/28 07:27:38;;;;;;;6.57;3.25;;;19.00;53.00;;;;;;4882174;29;20511;-56
2022/10/28 07:30:06;;;;;;;3.05;2.55;;;19.00;52.10;;;;;;4881973;29;20049;-53
2022/10/28 07:32:32;;;;;;;3.38;2.63;;;19.00;50.30;;;;;;4882516;29;20045;-54
2022/10/28 07:34:59;;;;;;;4.43;2.42;;;19.00;50.30;;;;;;4882182;29;20420;-55
2022/10/28 07:37:26;;;;;;;5.72;2.78;;;19.00;53.30;;;;;;4881813;29;20128;-55
2022/10/28 07:39:53;;;;;;;5.18;3.10;;;19.00;50.20;;;;;;4881592;29;20052;-57
2022/10/28 07:42:20;;;;;;;4.53;2.85;;;19.00;51.40;;;;;;4881971;29;20053;-55
2022/10/28 07:44:46;;;;;;;3.03;2.13;;;19.00;49.40;;;;;;4881788;29;20057;-53
2022/10/28 07:47:14;;;;;;;4.38;2.83;;;19.00;50.00;;;;;;4881860;29;20069;-56
2022/10/28 07:49:41;;;;;;;4.88;2.60;;;19.00;51.60;;;;;;4881499;29;20517;-56
2022/10/28 07:52:08;;;;;;;5.45;2.95;;;19.00;53.30;;;;;;4868449;29;20046;-51
2022/10/28 07:54:35;;;;;;;3.17;2.42;;;19.00;50.00;;;;;;4863245;29;20453;-53
2022/10/28 07:57:02;;;;;;;7.80;2.70;;;19.00;54.20;;;;;;4863198;29;20097;-52
2022/10/28 07:59:29;;;;;;;3.70;2.40;;;19.00;53.30;;;;;;4862676;29;20069;-55
2022/10/28 08:01:55;;;;;;;5.80;3.40;;;19.00;54.00;;;;;;4863012;29;20457;-51
2022/10/28 08:04:22;;;;;;;4.70;2.78;;;19.00;54.10;;;;;;4863238;29;20053;-49
2022/10/28 08:06:49;;;;;;;6.43;3.20;;;19.00;54.10;;;;;;4862971;29;20045;-55
2022/10/28 08:09:16;;;;;;;8.27;3.40;;;19.00;53.10;;;;;;4862547;29;20449;-55
2022/10/28 08:11:43;;;;;;;6.25;3.00;;;19.00;54.90;;;;;;4862936;29;20448;-52
2022/10/28 08:14:10;;;;;;;7.60;3.08;;;19.00;54.20;;;;;;4862905;29;20046;-55
2022/10/28 08:16:36;;;;;;;3.75;2.65;;;19.00;54.20;;;;;;4862798;29;20102;-55
2022/10/28 08:19:03;;;;;;;5.05;3.83;;;19.00;55.50;;;;;;4862619;29;20098;-54
2022/10/28 08:21:33;;;;;;;6.00;2.55;;;19.00;52.30;;;;;;4862399;29;20045;-55
2022/10/28 08:24:00;;;;;;;4.68;2.35;;;19.00;52.90;;;;;;4862672;29;20041;-52
2022/10/28 08:26:27;;;;;;;3.90;2.63;;;19.00;55.10;;;;;;4861366;29;20113;-55
2022/10/28 08:28:54;;;;;;;3.20;2.53;;;19.00;53.30;;;;;;4862209;29;20054;-53
2022/10/28 08:31:20;;;;;;;4.70;2.70;;;19.00;55.20;;;;;;4862413;29;20052;-53
2022/10/28 08:33:47;;;;;;;6.97;3.50;;;19.00;52.80;;;;;;4862523;29;20050;-53
2022/10/28 08:36:15;;;;;;;3.50;2.40;;;19.00;54.30;;;;;;4862279;29;20528;-57
2022/10/28 08:38:43;;;;;;;3.78;2.45;;;19.00;54.80;;;;;;4862294;29;20496;-52
2022/10/28 08:41:28;;;;;;;7.22;3.78;;;19.00;57.20;;;;;;4862352;29;20041;-56
2022/10/28 08:44:04;;;;;;;4.93;3.47;;;19.00;55.00;;;;;;4862466;29;20045;-55
2022/10/28 08:47:08;;;;;;;7.97;3.03;;;19.00;54.90;;;;;;4862262;29;20392;-56
2022/10/28 08:49:38;;;;;;;5.20;2.78;;;19.00;54.60;;;;;;4860684;29;20423;-56
2022/10/28 08:52:15;;;;;;;7.35;2.53;;;19.00;53.30;;;;;;4875330;29;20045;-55
2022/10/28 08:54:59;;;;;;;4.80;2.80;;;19.00;56.60;;;;;;4880658;29;20072;-57
2022/10/28 08:57:34;;;;;;;5.28;3.00;;;19.00;55.40;;;;;;4880629;29;20070;-56
2022/10/28 09:00:03;;;;;;;4.10;2.30;;;19.00;55.40;;;;;;4880282;29;20055;-55
2022/10/28 09:02:47;;;;;;;4.45;3.10;;;19.00;57.80;;;;;;4880736;29;20128;-51
2022/10/28 09:05:19;;;;;;;4.88;2.72;;;19.00;56.70;;;;;;4894952;29;20049;-57
2022/10/28 09:07:46;;;;;;;5.97;2.65;;;19.00;57.80;;;;;;4880662;29;20064;-57
2022/10/28 09:10:14;;;;;;;5.05;3.25;;;19.00;54.70;;;;;;4880259;29;20042;-55
2022/10/28 09:13:02;;;;;;;4.90;3.20;;;19.00;56.90;;;;;;4880426;29;20045;-55
2022/10/28 09:15:50;;;;;;;7.20;3.08;;;19.00;56.80;;;;;;4880259;29;20041;-54
2022/10/28 09:18:18;;;;;;;6.72;2.63;;;19.10;57.40;;;;;;4879881;29;20435;-57
2022/10/28 09:20:53;;;;;;;5.63;3.15;;;19.00;57.80;;;;;;4880246;29;20037;-53
2022/10/28 09:23:21;;;;;;;5.20;2.78;;;19.00;59.90;;;;;;4880228;29;20423;-57
2022/10/28 09:26:27;;;;;;;4.85;2.60;;;19.10;59.20;;;;;;4879764;29;20049;-53
2022/10/28 09:29:15;;;;;;;4.43;2.72;;;19.10;59.20;;;;;;4879891;29;20411;-55
2022/10/28 09:31:51;;;;;;;5.18;3.20;;;19.10;56.90;;;;;;4879767;29;20101;-55
2022/10/28 09:34:30;;;;;;;4.10;2.70;;;19.00;60.90;;;;;;4880246;29;20522;-52
2022/10/28 09:37:23;;;;;;;5.07;1.88;;;19.10;60.50;;;;;;4879682;29;20059;-52
2022/10/28 09:39:56;;;;;;;3.78;2.13;;;19.10;60.00;;;;;;4879671;29;20045;-51
2022/10/28 09:42:27;;;;;;;5.05;3.17;;;19.10;59.00;;;;;;4879841;29;20131;-50
2022/10/28 09:45:02;;;;;;;5.35;2.42;;;19.10;62.70;;;;;;4879777;29;20072;-53
2022/10/28 09:47:34;;;;;;;3.83;2.25;;;19.10;60.10;;;;;;4880100;29;20125;-51
2022/10/28 09:50:10;;;;;;;7.55;2.67;;;19.00;61.80;;;;;;4879463;29;20053;-57
2022/10/28 09:52:49;;;;;;;7.03;3.08;;;19.10;60.70;;;;;;4862698;29;20120;-56
2022/10/28 09:55:21;;;;;;;3.03;2.13;;;19.10;60.80;;;;;;4861082;29;20052;-53
2022/10/28 09:57:48;;;;;;;5.88;2.65;;;19.10;62.80;;;;;;4860977;29;20041;-55
2022/10/28 10:00:16;;;;;;;4.75;2.42;;;19.10;60.00;;;;;;4860684;29;20568;-55
2022/10/28 10:02:44;;;;;;;4.30;2.97;;;19.10;64.50;;;;;;4861092;29;20412;-54
2022/10/28 10:05:13;;;;;;;5.78;3.00;;;19.20;65.20;;;;;;4863940;29;20060;-51
2022/10/28 10:08:03;;;;;;;8.07;3.30;;;19.20;67.20;;;;;;4876245;29;20451;-52
2022/10/28 10:10:31;;;;;;;9.60;3.20;;;19.20;64.10;;;;;;4863311;29;20060;-55
2022/10/28 10:13:03;;;;;;;10.02;3.90;;;19.20;65.90;;;;;;4858184;29;20062;-58
2022/10/28 10:15:58;;;;;;;11.90;4.13;;;19.20;68.30;;;;;;4862656;29;20048;-53
2022/10/28 10:18:28;;;;;;;7.15;3.72;;;19.20;68.50;;;;;;4854833;29;20056;-57
2022/10/28 10:20:58;;;;;;;16.80;4.53;;;19.20;67.10;;;;;;4865251;29;20045;-57
2022/10/28 10:23:32;;;;;;;8.25;3.75;;;19.20;68.10;;;;;;4865464;29;20049;-56
2022/10/28 10:26:07;;;;;;;10.10;3.50;;;19.20;67.10;;;;;;4868163;29;20045;-54
2022/10/28 10:28:46;;;;;;;6.50;3.22;;;19.20;70.80;;;;;;4857887;29;20495;-56
2022/10/28 10:31:19;;;;;;;8.18;3.72;;;19.20;73.80;;;;;;4860458;29;20147;-56
2022/10/28 10:33:51;;;;;;;9.70;4.70;;;19.20;71.00;;;;;;4871995;29;20073;-56
2022/10/28 10:36:22;;;;;;;5.63;3.20;;;19.30;71.90;;;;;;4864111;29;20051;-55
2022/10/28 10:38:57;;;;;;;5.78;4.03;;;19.20;72.30;;;;;;4861374;29;20048;-56
2022/10/28 10:41:36;;;;;;;9.57;3.72;;;19.30;71.50;;;;;;4878757;29;20060;-55
2022/10/28 10:44:21;;;;;;;10.95;4.28;;;19.30;70.90;;;;;;4878886;29;20055;-54
2022/10/28 10:46:54;;;;;;;10.73;3.22;;;19.20;68.90;;;;;;4878634;29;20053;-56
2022/10/28 10:49:21;;;;;;;5.95;3.15;;;19.20;68.80;;;;;;4861200;29;20567;-57
2022/10/28 10:52:00;;;;;;;14.45;3.60;;;19.30;71.30;;;;;;4859795;29;20042;-56
2022/10/28 10:54:29;;;;;;;10.25;3.65;;;19.20;69.80;;;;;;4859232;29;20114;-54
2022/10/28 10:57:15;;;;;;;8.90;3.30;;;19.30;68.60;;;;;;4852629;29;20405;-56
2022/10/28 10:59:45;;;;;;;6.70;3.58;;;19.30;70.90;;;;;;4854892;29;20105;-54
2022/10/28 11:02:29;;;;;;;4.82;2.75;;;19.30;71.50;;;;;;4853081;29;20519;-54
2022/10/28 11:05:03;;;;;;;9.55;3.17;;;19.30;71.90;;;;;;4852856;29;20548;-55
2022/10/28 11:07:31;;;;;;;11.10;3.97;;;19.30;73.00;;;;;;4849942;29;20497;-56
2022/10/28 11:09:59;;;;;;;9.35;3.13;;;19.30;70.70;;;;;;4849907;29;20042;-58
2022/10/28 11:12:37;;;;;;;9.73;4.53;;;19.30;70.80;;;;;;4854817;29;20057;-52
2022/10/28 11:15:28;;;;;;;12.45;3.58;;;19.30;70.90;;;;;;4876986;29;20639;-56
2022/10/28 11:18:23;;;;;;;7.00;3.20;;;19.30;71.80;;;;;;4873870;29;20135;-55
2022/10/28 11:21:26;;;;;;;11.32;3.58;;;19.30;72.30;;;;;;4869257;29;20069;-56
2022/10/28 11:24:02;;;;;;;10.60;4.35;;;19.30;70.70;;;;;;4856654;29;20053;-57
2022/10/28 11:26:35;;;;;;;10.00;3.28;;;19.30;71.30;;;;;;4878375;29;20111;-55
2022/10/28 11:29:13;;;;;;;7.95;3.53;;;19.30;69.10;;;;;;4859624;29;20117;-54
2022/10/28 11:32:00;;;;;;;5.82;2.90;;;19.30;71.00;;;;;;4862401;29;20049;-56
2022/10/28 11:34:36;;;;;;;9.55;3.10;;;19.30;70.80;;;;;;4860115;29;20437;-56
2022/10/28 11:37:19;;;;;;;8.02;3.17;;;19.30;71.20;;;;;;4865190;29;20402;-55
2022/10/28 11:40:29;;;;;;;12.57;3.13;;;19.30;72.40;;;;;;4878388;29;20073;-57
2022/10/28 11:43:21;;;;;;;14.95;3.75;;;19.30;69.00;;;;;;4860176;29;20057;-55
2022/10/28 11:46:09;;;;;;;9.38;3.00;;;19.30;67.80;;;;;;4878346;29;20487;-58
2022/10/28 11:48:56;;;;;;;11.50;3.58;;;19.30;68.00;;;;;;4878274;29;20049;-56
2022/10/28 11:51:54;;;;;;;10.32;4.07;;;19.30;69.10;;;;;;4878317;29;20057;-52
2022/10/28 11:54:43;;;;;;;11.50;3.50;;;19.30;69.30;;;;;;4871353;29;20057;-56
2022/10/28 11:57:30;;;;;;;5.00;2.65;;;19.30;69.80;;;;;;4860080;29;20512;-57
2022/10/28 12:00:16;;;;;;;8.82;2.97;;;19.30;66.00;;;;;;4859427;29;20140;-55
2022/10/28 12:02:45;;;;;;;8.85;3.22;;;19.30;66.90;;;;;;4863317;29;20176;-56
2022/10/28 12:05:42;;;;;;;9.35;3.40;;;19.30;68.80;;;;;;4863133;29;20492;-58
2022/10/28 12:08:24;;;;;;;6.55;4.55;;;19.30;65.20;;;;;;4863118;29;20464;-57
2022/10/28 12:10:54;;;;;;;8.33;3.23;;;19.30;66.70;;;;;;4862725;29;20408;-53
2022/10/28 12:13:57;;;;;;;8.25;2.80;;;19.30;66.00;;;;;;4862980;29;20041;-57
2022/10/28 12:17:11;;;;;;;7.53;3.45;;;19.30;67.90;;;;;;4862868;29;20042;-57
2022/10/28 12:20:02;;;;;;;5.47;2.85;;;19.30;67.20;;;;;;4862504;29;20092;-56
2022/10/28 12:22:35;;;;;;;6.15;2.88;;;19.30;65.70;;;;;;4862756;29;20046;-55
2022/10/28 12:25:12;;;;;;;7.13;2.75;;;19.30;65.20;;;;;;4862916;29;20046;-58
2022/10/28 12:27:43;;;;;;;6.78;2.67;;;19.30;64.90;;;;;;4863233;29;20065;-58
2022/10/28 12:30:20;;;;;;;8.93;2.85;;;19.30;64.40;;;;;;4881189;29;20083;-52
2022/10/28 12:32:51;;;;;;;11.32;3.17;;;19.30;65.70;;;;;;4881215;29;20133;-54
2022/10/28 12:35:31;;;;;;;13.60;3.15;;;19.40;68.80;;;;;;4881034;29;20054;-54
2022/10/28 12:38:15;;;;;;;5.75;3.30;;;19.30;66.60;;;;;;4881191;29;20399;-55
2022/10/28 12:41:08;;;;;;;7.90;2.97;;;19.30;65.80;;;;;;4880675;29;20049;-53
2022/10/28 12:43:43;;;;;;;11.00;3.35;;;19.30;63.80;;;;;;4880998;29;20041;-54
2022/10/28 12:46:27;;;;;;;4.63;2.50;;;19.30;65.40;;;;;;4880899;29;20049;-56
2022/10/28 12:48:59;;;;;;;8.48;3.28;;;19.30;65.80;;;;;;4880869;29;20048;-58
2022/10/28 12:51:39;;;;;;;8.20;2.40;;;19.30;65.00;;;;;;4881167;29;20085;-56
2022/10/28 12:54:35;;;;;;;5.20;2.58;;;19.30;65.70;;;;;;4881347;29;20419;-53
2022/10/28 12:57:19;;;;;;;5.40;2.83;;;19.30;65.60;;;;;;4881089;29;20077;-57
2022/10/28 13:00:00;;;;;;;10.38;3.55;;;19.40;64.80;;;;;;4881173;29;20047;-55
2022/10/28 13:02:40;;;;;;;8.40;3.38;;;19.30;62.40;;;;;;4881112;29;20121;-55
2022/10/28 13:05:18;;;;;;;8.70;3.95;;;19.40;63.50;;;;;;4881303;29;20052;-52
2022/10/28 13:08:29;;;;;;;12.18;3.13;;;19.30;65.70;;;;;;4880987;29;20048;-53
2022/10/28 13:11:14;;;;;;;8.52;3.53;;;19.40;64.20;;;;;;4880732;29;20496;-52
2022/10/28 13:14:06;;;;;;;5.97;3.42;;;19.40;63.20;;;;;;4880549;29;20052;-58
2022/10/28 13:16:50;;;;;;;10.13;3.15;;;19.40;63.20;;;;;;4880737;29;20080;-55
2022/10/28 13:19:46;;;;;;;12.10;4.65;;;19.40;63.90;;;;;;4879181;29;20139;-54